Time;durP1;ratioP1;P1;durP2;ratioP2;P2;SDS_P1;SDS_P2;PMS_P1;PMS_P2;Temp;Humidity;BMP_temperature;BMP_pressure;BME280_temperature;BME280_humidity;BME280_pressure;Samples;Min_cycle;Max_cycle;Signal;HPM_P1;HPM_P2
2022/09/18 00:02:57;;;;;;;7.00;1.47;;;11.60;1.00;;;;;;5054764;28;20425;-85
2022/09/18 00:05:27;;;;;;;7.03;1.63;;;11.60;1.00;;;;;;5048208;28;21002;-84
2022/09/18 00:07:57;;;;;;;2.87;2.33;;;11.60;1.00;;;;;;5034455;28;20502;-84
2022/09/18 00:10:57;;;;;;;2.60;1.63;;;11.50;1.00;;;;;;5056924;28;20442;-84
2022/09/18 00:13:23;;;;;;;9.23;1.70;;;11.50;1.00;;;;;;5049297;28;20463;-84
2022/09/18 00:15:58;;;;;;;4.57;1.70;;;11.50;1.00;;;;;;5034119;28;20423;-84
2022/09/18 00:18:24;;;;;;;2.63;1.47;;;11.50;1.00;;;;;;5047275;28;20363;-77
2022/09/18 00:20:51;;;;;;;7.83;1.80;;;11.60;1.00;;;;;;5046765;28;20519;-77
2022/09/18 00:23:17;;;;;;;6.37;1.73;;;11.50;1.00;;;;;;5033986;28;20422;-77
2022/09/18 00:25:57;;;;;;;10.07;1.90;;;11.50;1.00;;;;;;5033996;28;20442;-77
2022/09/18 00:28:23;;;;;;;8.73;2.10;;;11.40;1.00;;;;;;5042509;28;20414;-76
2022/09/18 00:30:52;;;;;;;7.83;2.03;;;11.40;1.00;;;;;;5039230;28;20415;-76
2022/09/18 00:33:18;;;;;;;5.70;2.13;;;11.40;1.00;;;;;;5051796;28;20198;-76
2022/09/18 00:35:44;;;;;;;9.23;1.90;;;11.50;1.00;;;;;;5052094;28;20529;-76
2022/09/18 00:38:11;;;;;;;6.73;2.07;;;11.50;1.00;;;;;;5044440;28;20451;-76
2022/09/18 00:40:39;;;;;;;7.33;2.03;;;11.60;1.00;;;;;;5037463;28;20483;-76
2022/09/18 00:43:27;;;;;;;8.07;1.90;;;11.60;1.00;;;;;;5045480;28;20488;-76
2022/09/18 00:46:45;;;;;;;2.93;2.03;;;11.60;1.00;;;;;;5051662;28;20430;-76
2022/09/18 00:49:19;;;;;;;5.60;1.50;;;11.60;1.00;;;;;;5053666;28;20800;-84
2022/09/18 00:51:48;;;;;;;2.97;2.20;;;11.70;1.00;;;;;;5053228;28;20391;-84
2022/09/18 00:54:35;;;;;;;5.93;1.60;;;11.60;1.00;;;;;;5041329;28;20450;-84
2022/09/18 00:57:23;;;;;;;7.67;1.80;;;11.60;1.00;;;;;;5045154;28;20417;-84
2022/09/18 00:59:51;;;;;;;3.13;1.20;;;11.60;1.00;;;;;;5053048;28;20450;-84
2022/09/18 01:02:21;;;;;;;2.30;1.40;;;11.70;1.00;;;;;;5050075;28;20418;-84
2022/09/18 01:08:29;;;;;;;4.97;1.87;;;11.70;1.00;;;;;;5051538;28;20409;-84
2022/09/18 01:11:21;;;;;;;3.47;1.60;;;11.70;1.00;;;;;;5032466;28;20427;-84
2022/09/18 01:17:43;;;;;;;3.93;1.57;;;11.60;1.00;;;;;;5044249;28;20409;-84
2022/09/18 01:20:36;;;;;;;5.10;1.77;;;11.50;1.00;;;;;;5038612;28;20410;-84
2022/09/18 01:23:32;;;;;;;5.60;1.50;;;11.50;1.00;;;;;;5053516;28;20951;-84
2022/09/18 01:30:02;;;;;;;3.93;1.73;;;11.50;1.00;;;;;;5047454;28;20400;-84
2022/09/18 01:32:41;;;;;;;6.70;1.70;;;11.50;1.00;;;;;;5051444;28;20429;-76
2022/09/18 01:35:26;;;;;;;4.90;1.50;;;11.50;1.00;;;;;;5051812;28;20457;-76
2022/09/18 01:38:40;;;;;;;5.90;1.70;;;11.50;1.00;;;;;;5055095;28;20429;-76
2022/09/18 01:41:19;;;;;;;6.50;1.53;;;11.50;1.00;;;;;;5008514;28;20954;-76
2022/09/18 01:43:49;;;;;;;3.43;2.13;;;11.50;1.00;;;;;;5005937;28;20431;-77
2022/09/18 01:46:28;;;;;;;1.60;1.50;;;11.50;1.00;;;;;;5000641;28;20435;-76
2022/09/18 01:49:03;;;;;;;3.03;1.50;;;11.60;1.00;;;;;;4996256;28;20419;-84
2022/09/18 01:51:55;;;;;;;4.83;1.60;;;11.60;1.00;;;;;;4991086;28;20442;-84
2022/09/18 01:55:15;;;;;;;4.80;1.60;;;11.60;1.00;;;;;;5006628;28;20956;-84
2022/09/18 01:58:12;;;;;;;3.80;1.40;;;11.60;1.00;;;;;;5007664;28;20479;-84
2022/09/18 02:04:07;;;;;;;3.43;1.77;;;11.70;1.00;;;;;;4998604;28;20959;-76
2022/09/18 02:06:44;;;;;;;4.57;1.70;;;11.70;1.00;;;;;;4985656;28;20427;-76
2022/09/18 02:09:21;;;;;;;2.30;1.70;;;11.70;1.00;;;;;;4995314;28;20892;-76
2022/09/18 02:11:50;;;;;;;2.70;1.10;;;11.70;1.00;;;;;;4985335;28;20429;-76
2022/09/18 02:14:27;;;;;;;11.77;1.60;;;11.70;1.00;;;;;;5013987;28;20455;-76
2022/09/18 02:17:22;;;;;;;5.17;1.50;;;11.80;1.00;;;;;;5024548;28;21189;-76
2022/09/18 02:20:00;;;;;;;5.90;1.40;;;11.80;1.00;;;;;;5037856;28;20427;-77
2022/09/18 02:22:30;;;;;;;3.50;1.40;;;11.90;1.00;;;;;;5035922;28;20433;-77
2022/09/18 02:25:03;;;;;;;4.63;1.40;;;11.90;1.00;;;;;;5038709;28;20517;-76
2022/09/18 02:27:40;;;;;;;9.63;1.70;;;12.00;1.00;;;;;;5050464;28;20426;-76
2022/09/18 02:30:11;;;;;;;1.67;1.40;;;11.90;1.00;;;;;;5054715;28;20422;-76
2022/09/18 02:33:21;;;;;;;2.87;1.57;;;11.90;1.00;;;;;;5055916;28;20453;-84
2022/09/18 02:36:17;;;;;;;4.00;1.40;;;11.90;1.00;;;;;;5049787;28;20425;-84
2022/09/18 02:38:47;;;;;;;4.83;1.53;;;11.90;1.00;;;;;;4941725;28;20467;-84
2022/09/18 02:41:38;;;;;;;5.00;1.53;;;11.80;1.00;;;;;;4967155;28;20450;-84
2022/09/18 02:44:22;;;;;;;5.57;1.43;;;11.90;1.00;;;;;;4964103;28;20554;-84
2022/09/18 02:47:14;;;;;;;2.60;1.30;;;11.90;1.00;;;;;;4975239;28;20430;-84
2022/09/18 02:50:01;;;;;;;4.40;1.37;;;11.90;1.00;;;;;;4975563;28;20437;-84
2022/09/18 02:56:09;;;;;;;2.53;1.40;;;12.00;1.00;;;;;;4968962;28;20421;-84
2022/09/18 02:58:53;;;;;;;2.43;1.03;;;12.00;1.00;;;;;;4974695;28;20524;-84
2022/09/18 03:01:29;;;;;;;1.80;1.13;;;12.00;1.00;;;;;;4975104;28;20519;-84
2022/09/18 03:04:21;;;;;;;2.73;1.57;;;12.00;1.00;;;;;;4974715;28;20597;-76
2022/09/18 03:07:03;;;;;;;6.60;1.30;;;12.00;1.00;;;;;;4974560;28;20436;-76
2022/09/18 03:09:57;;;;;;;9.37;1.63;;;11.90;1.00;;;;;;4974532;28;20417;-76
2022/09/18 03:12:23;;;;;;;9.33;1.33;;;11.90;1.00;;;;;;4974483;28;20508;-76
2022/09/18 03:14:57;;;;;;;3.90;1.73;;;11.90;1.00;;;;;;4983447;28;20529;-76
2022/09/18 03:17:27;;;;;;;1.50;1.10;;;11.80;1.00;;;;;;5066590;28;20183;-76
2022/09/18 03:20:06;;;;;;;3.73;1.40;;;11.80;1.00;;;;;;5060372;28;20429;-85
2022/09/18 03:22:31;;;;;;;3.23;1.20;;;11.90;1.00;;;;;;5035580;28;20403;-84
2022/09/18 03:24:57;;;;;;;2.23;1.20;;;11.90;1.00;;;;;;5051750;28;20497;-84
2022/09/18 03:28:09;;;;;;;1.27;1.17;;;12.00;1.00;;;;;;5054101;28;20180;-85
2022/09/18 03:30:45;;;;;;;6.77;1.40;;;11.90;1.00;;;;;;5054661;28;20422;-85
2022/09/18 03:33:11;;;;;;;3.97;1.60;;;12.00;1.00;;;;;;5053680;28;20460;-77
2022/09/18 03:35:37;;;;;;;5.43;1.50;;;11.90;1.00;;;;;;5034956;28;20419;-77
2022/09/18 03:38:09;;;;;;;1.90;1.20;;;12.00;1.00;;;;;;5035058;28;20165;-76
2022/09/18 03:40:35;;;;;;;5.43;1.20;;;11.90;1.00;;;;;;5034433;28;20887;-76
2022/09/18 03:43:04;;;;;;;2.60;1.00;;;12.00;1.00;;;;;;5050026;28;20509;-76
2022/09/18 03:45:29;;;;;;;3.93;1.40;;;12.00;1.00;;;;;;5054653;28;20179;-77
2022/09/18 03:47:55;;;;;;;5.00;1.10;;;12.00;1.00;;;;;;5041267;28;20498;-76
2022/09/18 03:50:21;;;;;;;10.30;1.20;;;12.00;1.00;;;;;;5053729;28;20210;-76
2022/09/18 03:52:51;;;;;;;1.47;1.03;;;12.00;1.00;;;;;;5038602;28;20283;-76
2022/09/18 03:55:21;;;;;;;2.67;0.90;;;12.00;1.00;;;;;;5042831;28;20410;-76
2022/09/18 03:57:52;;;;;;;1.70;0.97;;;12.00;1.00;;;;;;5053975;28;20430;-76
2022/09/18 04:00:18;;;;;;;10.07;1.40;;;12.00;1.00;;;;;;5050154;28;20453;-77
2022/09/18 04:02:45;;;;;;;5.23;1.17;;;12.00;1.00;;;;;;5053691;28;20980;-77
2022/09/18 04:05:21;;;;;;;3.43;0.90;;;12.10;1.00;;;;;;5041753;28;20874;-76
2022/09/18 04:07:47;;;;;;;3.40;0.80;;;12.00;1.00;;;;;;5054279;28;20398;-76
2022/09/18 04:10:21;;;;;;;6.23;1.27;;;12.00;1.00;;;;;;5044675;28;20442;-77
2022/09/18 04:12:52;;;;;;;1.53;1.37;;;12.00;1.00;;;;;;5040943;28;20205;-76
2022/09/18 04:15:21;;;;;;;8.23;0.80;;;12.00;1.00;;;;;;5041168;28;20918;-76
2022/09/18 04:17:57;;;;;;;3.60;0.90;;;12.10;1.00;;;;;;5054284;28;20415;-77
2022/09/18 04:20:27;;;;;;;1.37;1.00;;;12.10;1.00;;;;;;5041341;28;20483;-85
2022/09/18 04:23:33;;;;;;;2.30;0.70;;;12.10;1.00;;;;;;5053353;28;20470;-85
2022/09/18 04:26:08;;;;;;;3.17;1.00;;;12.10;1.00;;;;;;5041035;28;20930;-84
2022/09/18 04:28:51;;;;;;;1.77;0.93;;;12.10;1.00;;;;;;5041374;28;20426;-85
2022/09/18 04:34:39;;;;;;;5.30;0.97;;;12.10;1.00;;;;;;5034286;28;20470;-84
2022/09/18 04:37:09;;;;;;;3.27;0.90;;;12.00;1.00;;;;;;5044813;28;20414;-85
2022/09/18 04:40:15;;;;;;;7.43;1.13;;;12.00;1.00;;;;;;5042499;28;20544;-85
2022/09/18 04:46:02;;;;;;;1.10;1.00;;;12.10;1.00;;;;;;5051434;28;20488;-85
2022/09/18 04:48:47;;;;;;;1.63;0.90;;;12.00;1.00;;;;;;5053261;28;20446;-85
2022/09/18 04:51:14;;;;;;;0.93;0.70;;;12.10;1.00;;;;;;5049265;28;20195;-76
2022/09/18 04:53:45;;;;;;;2.00;0.80;;;12.10;1.00;;;;;;5040339;28;20469;-76
2022/09/18 04:56:15;;;;;;;2.10;0.90;;;12.10;1.00;;;;;;5056075;28;20814;-76
2022/09/18 04:58:41;;;;;;;1.33;0.90;;;12.10;1.00;;;;;;5047753;28;20920;-76
2022/09/18 05:01:07;;;;;;;0.87;0.70;;;12.20;1.00;;;;;;5047356;28;20449;-76
2022/09/18 05:03:33;;;;;;;4.00;0.80;;;12.20;1.00;;;;;;5053182;28;20230;-76
2022/09/18 05:06:21;;;;;;;3.03;1.03;;;12.20;1.00;;;;;;5054941;28;20905;-84
2022/09/18 05:09:09;;;;;;;1.53;0.90;;;12.00;1.00;;;;;;5048845;28;20180;-86
2022/09/18 05:11:53;;;;;;;4.10;1.00;;;12.10;1.00;;;;;;5046921;28;20418;-85
2022/09/18 05:14:39;;;;;;;6.63;0.80;;;12.00;1.00;;;;;;5057617;28;20944;-84
2022/09/18 05:17:21;;;;;;;0.90;0.70;;;12.00;1.00;;;;;;5057703;28;20815;-84
2022/09/18 05:20:27;;;;;;;1.33;0.80;;;12.00;1.00;;;;;;5038368;28;20517;-84
2022/09/18 05:36:27;;;;;;;1.33;0.80;;;12.10;1.00;;;;;;5045971;28;20461;-85
2022/09/18 05:38:57;;;;;;;1.40;0.80;;;12.10;1.00;;;;;;5037496;28;20391;-84
2022/09/18 05:41:27;;;;;;;2.40;0.60;;;12.20;1.00;;;;;;5049168;28;20971;-85
2022/09/18 05:44:33;;;;;;;4.13;1.00;;;12.20;1.00;;;;;;5057274;28;20422;-84
2022/09/18 05:46:58;;;;;;;3.90;0.90;;;12.20;1.00;;;;;;5052030;28;20417;-85
2022/09/18 05:49:27;;;;;;;0.70;0.70;;;12.20;1.00;;;;;;5055406;28;20421;-84
2022/09/18 05:52:09;;;;;;;3.77;0.80;;;12.30;1.00;;;;;;5056891;28;20186;-85
2022/09/18 05:54:57;;;;;;;0.90;0.60;;;12.30;1.00;;;;;;5048460;28;20454;-84
2022/09/18 05:57:27;;;;;;;2.20;1.00;;;12.20;1.00;;;;;;5057310;28;20387;-85
2022/09/18 06:00:04;;;;;;;1.27;0.70;;;12.10;1.00;;;;;;5051948;28;20965;-78
2022/09/18 06:02:52;;;;;;;2.63;1.10;;;12.20;1.00;;;;;;5048468;28;20516;-77
2022/09/18 06:06:05;;;;;;;1.47;0.50;;;12.10;1.00;;;;;;5044830;28;20425;-77
2022/09/18 06:08:35;;;;;;;1.77;0.80;;;12.10;1.00;;;;;;5013914;28;20870;-76
2022/09/18 06:11:09;;;;;;;0.60;0.60;;;12.20;1.00;;;;;;5014334;28;20428;-77
2022/09/18 06:14:09;;;;;;;0.70;0.70;;;12.20;1.00;;;;;;5014226;28;20521;-78
2022/09/18 06:16:52;;;;;;;2.37;1.00;;;12.30;1.00;;;;;;5013696;28;20994;-78
2022/09/18 06:19:34;;;;;;;2.37;0.57;;;12.40;1.00;;;;;;5014218;28;20435;-77
2022/09/18 06:22:04;;;;;;;1.53;0.70;;;12.50;1.00;;;;;;5002747;28;20456;-77
2022/09/18 06:24:46;;;;;;;0.60;0.60;;;12.60;1.00;;;;;;5012883;28;20450;-77
2022/09/18 06:27:11;;;;;;;2.03;0.60;;;12.70;1.00;;;;;;4997547;28;20423;-77
2022/09/18 06:29:46;;;;;;;1.10;0.80;;;12.70;1.00;;;;;;5013986;28;20474;-77
2022/09/18 06:32:16;;;;;;;2.87;0.70;;;12.70;1.00;;;;;;5013821;28;20200;-77
2022/09/18 06:34:41;;;;;;;2.40;1.00;;;12.60;1.00;;;;;;5013819;28;20464;-77
2022/09/18 06:37:22;;;;;;;1.67;0.80;;;12.70;1.00;;;;;;5014051;28;20436;-77
2022/09/18 06:39:47;;;;;;;2.67;0.73;;;12.70;1.00;;;;;;4993776;28;20184;-78
2022/09/18 06:42:16;;;;;;;0.97;0.60;;;12.80;1.00;;;;;;5013800;28;20418;-78
2022/09/18 06:44:42;;;;;;;1.30;0.60;;;12.80;1.00;;;;;;5030657;28;20198;-78
2022/09/18 06:47:07;;;;;;;5.37;0.60;;;12.80;1.00;;;;;;5042296;28;20777;-77
2022/09/18 06:49:51;;;;;;;1.00;0.60;;;12.70;1.00;;;;;;5063159;28;20254;-77
2022/09/18 06:52:28;;;;;;;2.30;0.60;;;12.70;1.00;;;;;;5045912;28;20211;-77
2022/09/18 06:54:58;;;;;;;0.50;0.50;;;12.70;1.00;;;;;;5053792;28;20504;-77
2022/09/18 06:57:28;;;;;;;4.33;0.63;;;12.80;1.00;;;;;;5055000;28;20418;-77
2022/09/18 06:59:58;;;;;;;0.70;0.53;;;12.80;1.00;;;;;;5043688;28;20494;-77
2022/09/18 07:02:28;;;;;;;3.90;0.60;;;12.90;1.00;;;;;;5045312;28;20951;-78
2022/09/18 07:05:15;;;;;;;2.07;0.60;;;12.80;1.00;;;;;;5049848;28;20476;-78
2022/09/18 07:07:58;;;;;;;2.10;0.80;;;13.00;1.00;;;;;;5043787;28;20432;-77
2022/09/18 07:10:24;;;;;;;3.40;0.83;;;12.90;1.00;;;;;;5052332;28;20421;-77
2022/09/18 07:12:57;;;;;;;2.40;0.60;;;13.00;1.00;;;;;;5053334;28;20820;-78
2022/09/18 07:15:24;;;;;;;0.50;0.50;;;13.00;1.00;;;;;;5054903;28;20395;-77
2022/09/18 07:17:59;;;;;;;0.93;0.50;;;13.00;1.00;;;;;;5041603;28;20422;-86
2022/09/18 07:20:45;;;;;;;1.33;0.50;;;13.00;1.00;;;;;;5034605;28;20476;-85
2022/09/18 07:24:03;;;;;;;2.10;0.73;;;13.10;1.00;;;;;;5042702;28;20438;-86
2022/09/18 07:26:29;;;;;;;2.10;0.57;;;13.20;1.00;;;;;;5054059;28;20414;-87
2022/09/18 07:32:21;;;;;;;0.50;0.40;;;13.30;1.00;;;;;;5043925;28;20287;-86
2022/09/18 07:35:27;;;;;;;0.70;0.50;;;13.40;1.00;;;;;;5045771;28;20461;-87
2022/09/18 07:38:15;;;;;;;3.03;0.70;;;13.40;1.00;;;;;;5044687;28;20422;-87
2022/09/18 07:40:46;;;;;;;0.90;0.57;;;13.50;1.00;;;;;;5053035;28;20434;-79
2022/09/18 07:43:22;;;;;;;0.73;0.50;;;13.50;1.00;;;;;;5054459;28;20414;-79
2022/09/18 07:46:09;;;;;;;2.93;0.93;;;13.60;1.00;;;;;;5054484;28;20784;-79
2022/09/18 07:48:35;;;;;;;0.93;0.40;;;13.60;1.00;;;;;;5052942;28;20451;-78
2022/09/18 07:51:04;;;;;;;1.60;0.60;;;13.60;1.00;;;;;;5047224;28;20441;-79
2022/09/18 07:53:36;;;;;;;0.70;0.60;;;13.50;1.00;;;;;;5037205;28;20469;-78
2022/09/18 07:56:11;;;;;;;1.13;0.70;;;13.60;1.00;;;;;;5034312;28;20392;-78
2022/09/18 07:58:46;;;;;;;1.40;0.60;;;13.80;1.00;;;;;;5034641;28;20863;-78
2022/09/18 08:01:16;;;;;;;1.27;0.67;;;13.90;1.00;;;;;;5052065;28;20453;-79
2022/09/18 08:04:27;;;;;;;5.47;0.70;;;14.00;1.00;;;;;;5052986;28;20784;-79
2022/09/18 08:07:04;;;;;;;1.10;0.50;;;13.90;1.00;;;;;;5045499;28;20415;-76
2022/09/18 08:09:34;;;;;;;0.50;0.50;;;13.90;1.00;;;;;;5037287;28;20380;-77
2022/09/18 08:12:04;;;;;;;1.23;0.53;;;14.10;1.00;;;;;;5053425;28;20396;-76
2022/09/18 08:14:40;;;;;;;0.97;0.60;;;14.30;1.00;;;;;;5036100;28;21052;-76
2022/09/18 08:17:05;;;;;;;0.60;0.40;;;14.50;1.00;;;;;;5033926;28;20410;-76
2022/09/18 08:19:57;;;;;;;1.57;0.50;;;14.70;1.00;;;;;;5051787;28;20429;-76
2022/09/18 08:22:40;;;;;;;2.00;0.60;;;15.00;1.00;;;;;;5044857;28;20290;-76
2022/09/18 08:25:17;;;;;;;1.10;0.43;;;15.00;1.00;;;;;;5033951;28;20385;-76
2022/09/18 08:27:43;;;;;;;0.60;0.40;;;15.20;1.00;;;;;;5039517;28;20431;-76
2022/09/18 08:30:12;;;;;;;3.33;0.40;;;15.00;1.00;;;;;;5040753;28;20433;-76
2022/09/18 08:32:40;;;;;;;0.50;0.50;;;15.10;1.00;;;;;;5034936;28;20458;-76
2022/09/18 08:35:10;;;;;;;2.00;0.50;;;15.20;1.00;;;;;;5053362;28;20430;-76
2022/09/18 08:37:52;;;;;;;1.43;1.03;;;15.10;1.00;;;;;;5054131;28;20385;-80
2022/09/18 08:40:42;;;;;;;1.00;0.40;;;15.00;1.00;;;;;;5042279;28;20413;-79
2022/09/18 08:44:00;;;;;;;2.50;0.60;;;15.10;1.00;;;;;;5053687;28;20747;-79
2022/09/18 08:47:19;;;;;;;0.40;0.40;;;15.10;1.00;;;;;;5011853;28;20510;-79
2022/09/18 08:50:00;;;;;;;2.37;0.50;;;15.20;1.00;;;;;;4950258;28;20413;-81
2022/09/18 08:52:30;;;;;;;1.37;0.50;;;15.10;1.00;;;;;;4953576;29;20455;-80
2022/09/18 08:55:14;;;;;;;2.13;0.60;;;15.20;1.00;;;;;;4953129;29;20444;-82
2022/09/18 08:58:00;;;;;;;0.80;0.50;;;15.40;1.00;;;;;;4953140;29;20413;-83
2022/09/18 09:01:21;;;;;;;3.50;0.40;;;15.40;1.00;;;;;;4940319;29;20801;-82
2022/09/18 09:04:00;;;;;;;2.30;0.60;;;15.50;1.00;;;;;;4953289;29;20405;-82
2022/09/18 09:06:41;;;;;;;0.80;0.60;;;15.80;1.00;;;;;;4953419;28;20753;-78
2022/09/18 09:09:16;;;;;;;2.20;0.50;;;15.80;1.00;;;;;;4953507;28;20818;-77
2022/09/18 09:12:02;;;;;;;0.70;0.50;;;15.80;1.00;;;;;;4953301;29;20441;-76
2022/09/18 09:14:35;;;;;;;1.83;0.60;;;15.50;1.00;;;;;;4953266;29;20955;-76
2022/09/18 09:17:32;;;;;;;1.00;0.50;;;15.50;1.00;;;;;;4948739;29;20438;-77
2022/09/18 09:20:44;;;;;;;1.67;0.53;;;15.40;1.00;;;;;;4929498;29;20417;-77
2022/09/18 09:23:28;;;;;;;4.20;0.60;;;15.20;1.00;;;;;;4934278;29;20534;-82
2022/09/18 09:29:21;;;;;;;2.20;0.60;;;14.70;1.00;;;;;;4982400;28;20744;-82
2022/09/18 09:32:05;;;;;;;1.80;0.70;;;14.70;1.00;;;;;;4989572;28;20415;-83
2022/09/18 09:35:21;;;;;;;1.47;0.80;;;14.70;1.00;;;;;;4989042;28;20534;-82
2022/09/18 09:37:49;;;;;;;1.67;1.00;;;14.80;1.00;;;;;;4981740;28;20455;-82
2022/09/18 09:40:38;;;;;;;0.80;0.77;;;15.00;1.00;;;;;;4970428;28;21030;-82
2022/09/18 09:43:23;;;;;;;1.57;0.80;;;15.10;1.00;;;;;;4980365;28;20422;-82
2022/09/18 09:45:51;;;;;;;1.10;1.00;;;15.30;1.00;;;;;;4973822;28;20429;-82
2022/09/18 09:48:49;;;;;;;1.90;1.10;;;15.50;1.00;;;;;;4987056;28;20440;-81
2022/09/18 09:54:30;;;;;;;0.80;0.80;;;15.70;1.00;;;;;;4994593;28;20472;-81
2022/09/18 09:57:39;;;;;;;18.83;2.23;;;15.70;1.00;;;;;;5022961;28;20426;-82
2022/09/18 10:00:17;;;;;;;1.60;0.90;;;15.70;1.00;;;;;;5054896;28;20392;-82
2022/09/18 10:03:22;;;;;;;2.20;1.00;;;15.60;1.00;;;;;;5042795;28;20397;-82
2022/09/18 10:05:54;;;;;;;2.43;1.00;;;15.70;1.00;;;;;;5042788;28;20436;-81
2022/09/18 10:08:41;;;;;;;2.23;0.80;;;15.50;1.00;;;;;;5049013;28;20775;-82
2022/09/18 10:11:12;;;;;;;1.13;0.87;;;15.50;1.00;;;;;;5046171;28;20399;-81
2022/09/18 10:14:33;;;;;;;0.90;0.80;;;15.80;1.00;;;;;;5050142;28;20432;-81
2022/09/18 10:17:22;;;;;;;2.17;1.10;;;15.80;1.00;;;;;;5037565;28;20400;-82
2022/09/18 10:19:52;;;;;;;0.70;0.70;;;15.60;1.00;;;;;;5052016;28;20806;-82
2022/09/18 10:22:23;;;;;;;2.00;1.00;;;15.50;1.00;;;;;;5040518;28;20768;-76
2022/09/18 10:25:23;;;;;;;2.77;0.80;;;15.50;1.00;;;;;;5041159;28;20386;-76
2022/09/18 10:27:49;;;;;;;1.10;0.70;;;15.70;1.00;;;;;;4975055;28;20516;-76
2022/09/18 10:30:16;;;;;;;2.80;1.17;;;15.90;1.00;;;;;;4974972;28;20479;-76
2022/09/18 10:32:46;;;;;;;2.87;0.90;;;15.90;1.00;;;;;;4972401;28;20601;-76
2022/09/18 10:35:30;;;;;;;3.37;0.80;;;15.50;1.00;;;;;;4970661;28;20431;-76
2022/09/18 10:37:57;;;;;;;1.10;1.00;;;15.20;1.00;;;;;;4973489;28;20412;-76
2022/09/18 10:40:38;;;;;;;0.87;0.87;;;15.00;1.00;;;;;;4964888;28;20429;-76
2022/09/18 10:43:22;;;;;;;7.80;1.33;;;14.90;1.00;;;;;;4970025;28;20817;-76
2022/09/18 10:45:54;;;;;;;1.90;1.00;;;14.90;1.00;;;;;;4974176;28;21036;-76
2022/09/18 10:48:28;;;;;;;2.37;1.07;;;15.00;1.00;;;;;;4969571;28;20450;-76
2022/09/18 10:50:59;;;;;;;2.90;1.57;;;15.30;1.00;;;;;;4974686;28;20441;-76
2022/09/18 10:53:37;;;;;;;1.10;0.90;;;15.40;1.00;;;;;;4974670;28;20456;-76
2022/09/18 10:56:15;;;;;;;1.03;0.93;;;15.20;1.00;;;;;;4974792;28;20862;-76
2022/09/18 10:59:13;;;;;;;0.80;0.80;;;15.00;1.00;;;;;;4974451;28;20904;-76
2022/09/18 11:01:40;;;;;;;1.07;0.93;;;14.80;1.00;;;;;;4974154;28;20936;-76
2022/09/18 11:04:15;;;;;;;1.33;0.97;;;14.90;1.00;;;;;;4995042;28;20535;-76
2022/09/18 11:07:01;;;;;;;0.80;0.80;;;15.00;1.00;;;;;;5043594;28;20420;-76
2022/09/18 11:09:34;;;;;;;3.17;1.07;;;15.10;1.00;;;;;;5040857;28;20408;-77
2022/09/18 11:12:24;;;;;;;5.10;0.80;;;15.30;1.00;;;;;;5048315;28;20419;-79
2022/09/18 11:15:06;;;;;;;1.37;0.80;;;15.40;1.00;;;;;;5051117;28;20432;-82
2022/09/18 11:17:50;;;;;;;2.87;0.90;;;15.30;1.00;;;;;;5055084;28;20399;-80
2022/09/18 11:20:27;;;;;;;3.33;0.90;;;15.20;1.00;;;;;;5048792;28;20797;-79
2022/09/18 11:22:53;;;;;;;3.00;0.63;;;15.30;1.00;;;;;;5055285;28;20414;-81
2022/09/18 11:25:40;;;;;;;4.00;0.80;;;15.20;1.00;;;;;;5052743;28;20433;-84
2022/09/18 11:28:31;;;;;;;3.07;0.63;;;15.20;1.00;;;;;;5060175;28;20425;-81
2022/09/18 11:31:12;;;;;;;2.50;0.57;;;15.20;1.00;;;;;;5041922;28;20485;-84
2022/09/18 11:33:52;;;;;;;0.70;0.60;;;15.10;1.00;;;;;;5045071;28;20795;-83
2022/09/18 11:39:55;;;;;;;5.83;0.80;;;15.30;1.00;;;;;;5050084;28;20867;-83
2022/09/18 11:49:13;;;;;;;1.33;0.70;;;15.20;1.00;;;;;;5054922;28;20441;-80
2022/09/18 11:52:00;;;;;;;2.27;0.60;;;15.30;1.00;;;;;;5052981;28;20773;-82
2022/09/18 11:54:50;;;;;;;0.80;0.80;;;15.30;1.00;;;;;;5044560;28;20441;-78
2022/09/18 11:57:37;;;;;;;1.73;0.80;;;15.30;1.00;;;;;;5039878;28;20555;-80
2022/09/18 12:00:12;;;;;;;0.93;0.83;;;15.10;1.00;;;;;;5053349;28;20505;-81
2022/09/18 12:03:01;;;;;;;2.20;0.80;;;14.90;1.00;;;;;;5043827;28;20437;-78
2022/09/18 12:05:59;;;;;;;4.27;0.90;;;14.80;1.00;;;;;;5040991;28;20827;-78
2022/09/18 12:08:50;;;;;;;0.70;0.70;;;14.80;1.00;;;;;;5036355;28;20443;-78
2022/09/18 12:11:31;;;;;;;2.57;0.83;;;14.70;1.00;;;;;;5047437;28;20467;-81
2022/09/18 12:14:20;;;;;;;1.17;0.90;;;14.60;1.00;;;;;;5039502;28;20454;-81
2022/09/18 12:17:22;;;;;;;2.83;0.97;;;14.70;1.00;;;;;;5048765;28;20423;-81
2022/09/18 12:20:25;;;;;;;1.13;0.80;;;14.80;1.00;;;;;;5038010;28;20520;-81
2022/09/18 12:22:55;;;;;;;2.33;0.80;;;14.70;1.00;;;;;;5041904;28;20404;-80
2022/09/18 12:25:40;;;;;;;1.27;1.20;;;14.80;1.00;;;;;;5045130;28;20401;-80
2022/09/18 12:28:16;;;;;;;1.33;0.90;;;14.80;1.00;;;;;;5033691;28;20443;-81
2022/09/18 12:31:11;;;;;;;7.03;1.00;;;14.80;1.00;;;;;;5050650;28;20418;-82
2022/09/18 12:34:10;;;;;;;2.30;0.90;;;14.90;1.00;;;;;;5039085;28;20804;-81
2022/09/18 12:36:48;;;;;;;3.57;0.87;;;15.00;1.00;;;;;;5043963;28;20782;-78
2022/09/18 12:39:39;;;;;;;2.20;0.93;;;15.00;1.00;;;;;;5049972;28;20397;-78
2022/09/18 12:42:35;;;;;;;3.53;0.97;;;15.00;1.00;;;;;;5048554;28;20748;-84
2022/09/18 12:45:10;;;;;;;1.93;1.10;;;15.10;1.00;;;;;;5065668;28;20897;-84
2022/09/18 12:48:30;;;;;;;2.07;1.00;;;15.10;1.00;;;;;;5055000;28;20508;-83
2022/09/18 12:51:39;;;;;;;8.20;1.13;;;15.10;1.00;;;;;;5011669;28;20781;-83
2022/09/18 12:54:58;;;;;;;0.80;0.80;;;15.00;1.00;;;;;;4947674;28;20476;-84
2022/09/18 12:57:54;;;;;;;2.23;1.43;;;15.10;1.00;;;;;;4949169;29;20844;-83
2022/09/18 13:00:22;;;;;;;2.10;1.00;;;14.90;1.00;;;;;;4940753;28;20406;-79
2022/09/18 13:03:02;;;;;;;3.33;1.00;;;15.00;1.00;;;;;;4953310;29;20428;-80
2022/09/18 13:05:51;;;;;;;2.00;1.07;;;15.00;1.00;;;;;;4951726;28;20449;-81
2022/09/18 13:08:53;;;;;;;1.50;0.90;;;14.90;1.00;;;;;;4955916;28;20407;-80
2022/09/18 13:11:36;;;;;;;1.93;1.27;;;14.80;1.00;;;;;;4956518;28;20429;-80
2022/09/18 13:14:22;;;;;;;5.17;2.43;;;14.90;1.00;;;;;;4948353;28;20814;-80
2022/09/18 13:17:04;;;;;;;4.40;1.23;;;15.00;1.00;;;;;;4959072;28;20417;-80
2022/09/18 13:19:55;;;;;;;4.30;2.30;;;15.00;1.00;;;;;;4958106;28;20436;-80
2022/09/18 13:22:24;;;;;;;11.73;5.37;;;15.10;1.00;;;;;;4940235;28;20437;-82
2022/09/18 13:24:54;;;;;;;4.00;2.83;;;15.10;1.00;;;;;;4972677;28;20410;-80
2022/09/18 13:27:30;;;;;;;1.97;1.13;;;15.10;1.00;;;;;;4992858;28;20493;-81
2022/09/18 13:30:11;;;;;;;1.43;0.90;;;15.10;1.00;;;;;;4992441;28;20473;-81
2022/09/18 13:32:46;;;;;;;3.27;1.00;;;15.10;1.00;;;;;;5039566;28;20434;-81
2022/09/18 13:35:46;;;;;;;2.97;1.33;;;15.10;1.00;;;;;;5054368;28;20523;-80
2022/09/18 13:38:42;;;;;;;4.67;0.80;;;15.10;1.00;;;;;;5043238;28;20393;-81
2022/09/18 13:41:54;;;;;;;1.17;1.07;;;15.00;1.00;;;;;;5038958;28;20422;-82
2022/09/18 13:44:40;;;;;;;1.87;0.90;;;15.00;1.00;;;;;;5053365;28;20433;-82
2022/09/18 13:47:28;;;;;;;1.37;0.70;;;15.00;1.00;;;;;;5038224;28;20389;-81
2022/09/18 13:49:57;;;;;;;1.47;0.90;;;15.10;1.00;;;;;;5036733;28;20389;-81
2022/09/18 13:52:34;;;;;;;2.87;0.87;;;15.10;1.00;;;;;;5044938;28;20406;-81
2022/09/18 13:55:24;;;;;;;4.60;1.10;;;15.10;1.00;;;;;;5056600;28;20461;-77
2022/09/18 13:57:51;;;;;;;2.57;0.90;;;15.20;1.00;;;;;;5051493;28;20437;-77
2022/09/18 14:00:20;;;;;;;2.53;0.93;;;15.20;1.00;;;;;;5052310;28;20457;-77
2022/09/18 14:03:09;;;;;;;3.97;0.80;;;15.20;1.00;;;;;;5043804;28;20381;-77
2022/09/18 14:05:39;;;;;;;11.37;1.20;;;15.20;1.00;;;;;;5056375;28;20407;-77
2022/09/18 14:08:37;;;;;;;1.80;1.10;;;15.10;1.00;;;;;;5045858;28;20416;-77
2022/09/18 14:11:40;;;;;;;3.90;0.90;;;15.20;1.00;;;;;;4984187;28;20483;-81
2022/09/18 14:14:19;;;;;;;1.23;1.03;;;15.20;1.00;;;;;;4994681;28;20459;-81
2022/09/18 14:17:14;;;;;;;3.30;1.07;;;15.30;1.00;;;;;;4994409;28;20502;-81
2022/09/18 14:20:16;;;;;;;4.60;0.80;;;15.20;1.00;;;;;;4994696;28;20802;-81
2022/09/18 14:22:46;;;;;;;4.90;1.23;;;15.20;1.00;;;;;;4995019;28;20399;-81
2022/09/18 14:25:44;;;;;;;2.03;1.23;;;15.10;1.00;;;;;;4994792;28;20503;-77
2022/09/18 14:28:20;;;;;;;2.13;1.10;;;15.10;1.00;;;;;;4994643;28;20422;-77
2022/09/18 14:31:17;;;;;;;4.50;1.20;;;15.00;1.00;;;;;;4994459;28;20428;-77
2022/09/18 14:33:44;;;;;;;2.10;1.20;;;14.90;1.00;;;;;;4967244;28;20480;-77
2022/09/18 14:36:16;;;;;;;2.10;1.03;;;14.90;1.00;;;;;;4992967;28;20441;-77
2022/09/18 14:38:46;;;;;;;12.57;1.13;;;14.90;1.00;;;;;;4993917;28;20911;-77
2022/09/18 14:41:40;;;;;;;1.20;1.10;;;14.90;1.00;;;;;;4992004;28;20425;-77
2022/09/18 14:44:15;;;;;;;3.13;0.80;;;15.00;1.00;;;;;;4981580;28;20414;-77
2022/09/18 14:47:02;;;;;;;1.43;1.00;;;14.90;1.00;;;;;;5002265;28;20425;-77
2022/09/18 14:49:42;;;;;;;2.20;1.00;;;15.00;1.00;;;;;;5049712;28;20419;-77
2022/09/18 14:52:54;;;;;;;1.67;1.10;;;14.90;1.00;;;;;;5047825;28;20427;-78
2022/09/18 14:55:28;;;;;;;1.30;1.20;;;14.80;1.00;;;;;;5043584;28;20441;-77
2022/09/18 14:58:02;;;;;;;1.20;1.10;;;14.80;1.00;;;;;;5055575;28;20440;-77
2022/09/18 15:00:30;;;;;;;2.07;0.90;;;14.80;1.00;;;;;;5052601;28;20389;-77
2022/09/18 15:02:59;;;;;;;2.93;1.10;;;14.80;1.00;;;;;;5055366;28;20485;-78
2022/09/18 15:05:26;;;;;;;0.90;0.90;;;14.70;1.00;;;;;;5046993;28;20389;-78
2022/09/18 15:08:20;;;;;;;2.30;1.10;;;14.70;1.00;;;;;;5036977;28;20399;-77